Time,TemperatureF,DewpointF,PressureIn,WindDirection,WindDirectionDegrees,WindSpeedMPH,WindSpeedGustMPH,Humidity,HourlyPrecipIn,Conditions,Clouds,dailyrainin,SoftwareType,DateUTC
2013-06-07 00:05:00,66.9,56.0,29.21,North,11,0.0,4.0,67,0.00,,,0.01,weatherlink.com 1.10,2013-06-07 05:05:00,
2013-06-07 00:20:00,66.3,55.0,29.21,NNW,330,0.0,3.0,68,0.00,,,0.01,weatherlink.com 1.10,2013-06-07 05:20:00,
2013-06-07 00:35:00,66.0,56.0,29.21,WNW,298,2.0,2.0,69,0.00,,,0.01,weatherlink.com 1.10,2013-06-07 05:35:00,
2013-06-07 00:50:00,66.1,56.0,29.21,NW,308,0.0,3.0,69,0.00,,,0.01,weatherlink.com 1.10,2013-06-07 05:50:00,
2013-06-07 01:05:00,65.6,56.0,29.21,NW,322,0.0,3.0,70,0.00,,,0.01,weatherlink.com 1.10,2013-06-07 06:05:00,
2013-06-07 01:20:00,65.2,56.0,29.21,West,278,1.0,2.0,72,0.00,,,0.01,weatherlink.com 1.10,2013-06-07 06:20:00,
2013-06-07 01:35:00,65.1,56.0,29.21,WNW,295,0.0,3.0,72,0.00,,,0.01,weatherlink.com 1.10,2013-06-07 06:35:00,
2013-06-07 01:50:00,64.6,56.0,29.21,WNW,295,1.0,2.0,73,0.00,,,0.01,weatherlink.com 1.10,2013-06-07 06:50:00,
2013-06-07 02:05:00,62.9,56.0,29.21,WNW,290,0.0,0.0,78,0.00,,,0.01,weatherlink.com 1.10,2013-06-07 07:05:00,
2013-06-07 02:20:00,61.3,56.0,29.21,WNW,289,1.0,1.0,82,0.00,,,0.01,weatherlink.com 1.10,2013-06-07 07:20:00,
2013-06-07 02:35:00,62.3,56.0,29.21,WNW,283,0.0,2.0,80,0.00,,,0.01,weatherlink.com 1.10,2013-06-07 07:35:00,
2013-06-07 02:50:00,63.2,56.0,29.21,West,277,0.0,3.0,78,0.00,,,0.01,weatherlink.com 1.10,2013-06-07 07:50:00,
2013-06-07 03:05:00,62.6,56.0,29.21,WNW,288,0.0,2.0,80,0.00,,,0.00,weatherlink.com 1.10,2013-06-07 08:05:00,
2013-06-07 03:20:00,62.6,56.0,29.20,WNW,302,1.0,2.0,80,0.00,,,0.00,weatherlink.com 1.10,2013-06-07 08:20:00,
2013-06-07 03:35:00,62.4,56.0,29.20,West,277,1.0,2.0,80,0.00,,,0.00,weatherlink.com 1.10,2013-06-07 08:35:00,
2013-06-07 03:50:00,61.3,56.0,29.20,SW,224,0.0,1.0,83,0.00,,,0.00,weatherlink.com 1.10,2013-06-07 08:50:00,
2013-06-07 04:06:00,59.7,56.0,29.20,SW,218,0.0,1.0,86,0.00,,,0.00,weatherlink.com 1.10,2013-06-07 09:06:00,
2013-06-07 04:21:00,59.6,56.0,29.20,West,269,2.0,2.0,89,0.00,,,0.00,weatherlink.com 1.10,2013-06-07 09:21:00,
2013-06-07 04:36:00,60.8,57.0,29.21,WNW,297,0.0,1.0,86,0.00,,,0.00,weatherlink.com 1.10,2013-06-07 09:36:00,
2013-06-07 04:51:00,60.9,57.0,29.21,WNW,299,0.0,1.0,86,0.00,,,0.00,weatherlink.com 1.10,2013-06-07 09:51:00,
2013-06-07 05:06:00,61.1,57.0,29.21,NW,305,0.0,3.0,86,0.00,,,0.00,weatherlink.com 1.10,2013-06-07 10:06:00,
2013-06-07 05:21:00,60.9,57.0,29.21,West,264,1.0,2.0,87,0.00,,,0.00,weatherlink.com 1.10,2013-06-07 10:21:00,
2013-06-07 05:36:00,60.7,57.0,29.22,WNW,287,2.0,4.0,88,0.00,,,0.00,weatherlink.com 1.10,2013-06-07 10:36:00,
2013-06-07 05:51:00,61.2,57.0,29.21,West,281,1.0,4.0,87,0.00,,,0.00,weatherlink.com 1.10,2013-06-07 10:51:00,
2013-06-07 06:06:00,60.9,57.0,29.22,WNW,283,1.0,3.0,88,0.00,,,0.00,weatherlink.com 1.10,2013-06-07 11:06:00,
2013-06-07 06:21:00,61.4,58.0,29.22,WNW,287,2.0,5.0,87,0.00,,,0.00,weatherlink.com 1.10,2013-06-07 11:21:00,
2013-06-07 06:36:00,61.8,58.0,29.22,WNW,287,3.0,5.0,87,0.00,,,0.00,weatherlink.com 1.10,2013-06-07 11:36:00,
2013-06-07 06:51:00,62.3,58.0,29.22,West,281,4.0,6.0,86,0.00,,,0.00,weatherlink.com 1.10,2013-06-07 11:51:00,
2013-06-07 07:06:00,62.3,58.0,29.23,WNW,297,4.0,11.0,86,0.00,,,0.00,weatherlink.com 1.10,2013-06-07 12:06:00,
2013-06-07 07:21:00,62.6,58.0,29.23,NW,308,4.0,8.0,86,0.00,,,0.00,weatherlink.com 1.10,2013-06-07 12:21:00,
2013-06-07 07:36:00,62.8,59.0,29.23,NW,319,5.0,9.0,86,0.00,,,0.00,weatherlink.com 1.10,2013-06-07 12:36:00,
2013-06-07 07:51:00,62.8,59.0,29.24,NNW,343,1.0,9.0,86,0.00,,,0.00,weatherlink.com 1.10,2013-06-07 12:51:00,
2013-06-07 08:21:00,64.0,59.0,29.24,NW,310,3.0,8.0,84,0.00,,,0.00,weatherlink.com 1.10,2013-06-07 13:21:00,
2013-06-07 08:36:00,64.3,59.0,29.24,NNW,340,6.0,9.0,83,0.00,,,0.00,weatherlink.com 1.10,2013-06-07 13:36:00,
2013-06-07 08:51:00,65.2,59.0,29.25,WNW,284,4.0,10.0,80,0.00,,,0.00,weatherlink.com 1.10,2013-06-07 13:51:00,
2013-06-07 09:21:00,67.4,59.0,29.25,WNW,287,2.0,10.0,74,0.00,,,0.00,weatherlink.com 1.10,2013-06-07 14:21:00,
2013-06-07 09:36:00,68.3,59.0,29.25,WNW,293,7.0,11.0,72,0.00,,,0.00,weatherlink.com 1.10,2013-06-07 14:36:00,
2013-06-07 09:51:00,69.0,58.0,29.25,West,281,8.0,14.0,69,0.00,,,0.00,weatherlink.com 1.10,2013-06-07 14:51:00,
2013-06-07 10:06:00,69.1,58.0,29.25,NW,323,8.0,15.0,67,0.00,,,0.00,weatherlink.com 1.10,2013-06-07 15:06:00,
2013-06-07 10:21:00,69.9,58.0,29.25,WNW,290,3.0,11.0,66,0.00,,,0.00,weatherlink.com 1.10,2013-06-07 15:21:00,
2013-06-07 10:36:00,70.7,57.0,29.25,WNW,294,4.0,12.0,63,0.00,,,0.00,weatherlink.com 1.10,2013-06-07 15:36:00,
2013-06-07 10:51:00,71.2,58.0,29.25,NNE,29,5.0,9.0,63,0.00,,,0.00,weatherlink.com 1.10,2013-06-07 15:51:00,
2013-06-07 11:06:00,71.2,58.0,29.25,North,6,7.0,14.0,63,0.00,,,0.00,weatherlink.com 1.10,2013-06-07 16:06:00,
2013-06-07 11:21:00,72.8,58.0,29.25,NNW,338,6.0,11.0,60,0.00,,,0.00,weatherlink.com 1.10,2013-06-07 16:21:00,
2013-06-07 11:36:00,73.5,58.0,29.25,WNW,285,3.0,10.0,58,0.00,,,0.00,weatherlink.com 1.10,2013-06-07 16:36:00,
2013-06-07 11:51:00,74.1,58.0,29.25,WNW,288,4.0,8.0,58,0.00,,,0.00,weatherlink.com 1.10,2013-06-07 16:51:00,
2013-06-07 12:06:00,73.5,57.0,29.25,NW,321,3.0,8.0,57,0.00,,,0.00,weatherlink.com 1.10,2013-06-07 17:06:00,
2013-06-07 12:21:00,73.3,58.0,29.25,West,271,6.0,10.0,59,0.00,,,0.00,weatherlink.com 1.10,2013-06-07 17:21:00,
2013-06-07 12:37:00,73.9,57.0,29.24,NNE,13,6.0,8.0,56,0.00,,,0.00,weatherlink.com 1.10,2013-06-07 17:37:00,
2013-06-07 12:51:00,73.2,57.0,29.24,WNW,292,6.0,9.0,58,0.00,,,0.00,weatherlink.com 1.10,2013-06-07 17:51:00,
2013-06-07 13:06:00,73.2,57.0,29.24,NW,320,3.0,11.0,58,0.00,,,0.00,weatherlink.com 1.10,2013-06-07 18:06:00,
2013-06-07 13:21:00,74.6,57.0,29.23,NW,309,4.0,12.0,55,0.00,,,0.00,weatherlink.com 1.10,2013-06-07 18:21:00,
2013-06-07 13:37:00,74.0,58.0,29.23,NW,313,7.0,10.0,57,0.00,,,0.00,weatherlink.com 1.10,2013-06-07 18:37:00,
2013-06-07 13:51:00,74.6,58.0,29.23,NW,315,1.0,9.0,56,0.00,,,0.00,weatherlink.com 1.10,2013-06-07 18:51:00,
2013-06-07 14:06:00,73.6,58.0,29.23,NNW,347,4.0,10.0,58,0.00,,,0.00,weatherlink.com 1.10,2013-06-07 19:06:00,
2013-06-07 14:21:00,74.3,58.0,29.22,WNW,298,4.0,8.0,57,0.00,,,0.00,weatherlink.com 1.10,2013-06-07 19:21:00,
2013-06-07 14:36:00,76.8,58.0,29.22,North,356,2.0,15.0,52,0.00,,,0.00,weatherlink.com 1.10,2013-06-07 19:36:00,
2013-06-07 14:52:00,75.7,57.0,29.22,NNW,336,3.0,9.0,52,0.00,,,0.00,weatherlink.com 1.10,2013-06-07 19:52:00,
2013-06-07 15:22:00,75.1,57.0,29.22,North,349,2.0,11.0,54,0.00,,,0.00,weatherlink.com 1.10,2013-06-07 20:22:00,
2013-06-07 15:52:00,74.1,57.0,29.21,North,354,5.0,11.0,55,0.00,,,0.00,weatherlink.com 1.10,2013-06-07 20:52:00,
2013-06-07 16:07:00,74.8,57.0,29.21,NNW,331,7.0,10.0,55,0.00,,,0.00,weatherlink.com 1.10,2013-06-07 21:07:00,
2013-06-07 16:22:00,76.0,58.0,29.21,NW,319,2.0,9.0,54,0.00,,,0.00,weatherlink.com 1.10,2013-06-07 21:22:00,
2013-06-07 16:52:00,74.2,56.0,29.21,NE,43,3.0,7.0,54,0.00,,,0.00,weatherlink.com 1.10,2013-06-07 21:52:00,
2013-06-07 17:07:00,74.1,57.0,29.21,WNW,289,2.0,7.0,55,0.00,,,0.00,weatherlink.com 1.10,2013-06-07 22:07:00,
2013-06-07 17:22:00,74.2,56.0,29.21,WNW,288,5.0,9.0,54,0.00,,,0.00,weatherlink.com 1.10,2013-06-07 22:22:00,
2013-06-07 18:07:00,75.6,57.0,29.22,NE,43,2.0,8.0,53,0.00,,,0.00,weatherlink.com 1.10,2013-06-07 23:07:00,
2013-06-07 18:52:00,73.7,56.0,29.21,NNE,32,1.0,6.0,54,0.00,,,0.00,weatherlink.com 1.10,2013-06-07 23:52:00,
2013-06-07 19:07:00,73.5,57.0,29.22,North,354,1.0,4.0,56,0.00,,,0.00,weatherlink.com 1.10,2013-06-08 00:07:00,
2013-06-07 19:22:00,73.6,56.0,29.22,WNW,287,4.0,5.0,55,0.00,,,0.00,weatherlink.com 1.10,2013-06-08 00:22:00,
2013-06-07 19:37:00,72.9,57.0,29.22,NNW,343,1.0,4.0,57,0.00,,,0.00,weatherlink.com 1.10,2013-06-08 00:37:00,
2013-06-07 19:52:00,72.4,56.0,29.22,NW,311,0.0,6.0,56,0.00,,,0.00,weatherlink.com 1.10,2013-06-08 00:52:00,
2013-06-07 20:07:00,72.0,56.0,29.23,NNW,345,1.0,3.0,57,0.00,,,0.00,weatherlink.com 1.10,2013-06-08 01:07:00,
2013-06-07 20:22:00,71.8,56.0,29.23,North,351,0.0,3.0,57,0.00,,,0.00,weatherlink.com 1.10,2013-06-08 01:22:00,
2013-06-07 20:37:00,71.4,56.0,29.23,NNW,345,0.0,4.0,58,0.00,,,0.00,weatherlink.com 1.10,2013-06-08 01:37:00,
2013-06-07 20:52:00,71.0,56.0,29.23,North,354,1.0,2.0,59,0.00,,,0.00,weatherlink.com 1.10,2013-06-08 01:52:00,
2013-06-07 21:22:00,70.8,57.0,29.23,NW,318,0.0,4.0,61,0.00,,,0.00,weatherlink.com 1.10,2013-06-08 02:22:00,
2013-06-07 21:52:00,69.7,56.0,29.24,WNW,292,0.0,1.0,63,0.00,,,0.00,weatherlink.com 1.10,2013-06-08 02:52:00,
2013-06-07 22:07:00,69.0,57.0,29.25,NNW,339,1.0,1.0,65,0.00,,,0.00,weatherlink.com 1.10,2013-06-08 03:07:00,
2013-06-07 22:22:00,67.8,57.0,29.25,South,180,0.0,1.0,69,0.00,,,0.00,weatherlink.com 1.10,2013-06-08 03:22:00,
2013-06-07 22:37:00,66.1,57.0,29.25,SSW,195,0.0,1.0,72,0.00,,,0.00,weatherlink.com 1.10,2013-06-08 03:37:00,
2013-06-07 22:52:00,65.2,57.0,29.25,SSW,196,0.0,1.0,75,0.00,,,0.00,weatherlink.com 1.10,2013-06-08 03:52:00,
2013-06-07 23:07:00,64.7,57.0,29.25,SSW,208,0.0,0.0,77,0.00,,,0.00,weatherlink.com 1.10,2013-06-08 04:07:00,
2013-06-07 23:22:00,64.4,57.0,29.25,SSW,203,0.0,1.0,78,0.00,,,0.00,weatherlink.com 1.10,2013-06-08 04:22:00,
2013-06-07 23:37:00,64.5,58.0,29.25,SSW,200,0.0,0.0,78,0.00,,,0.00,weatherlink.com 1.10,2013-06-08 04:37:00,
2013-06-07 23:52:00,63.6,57.0,29.25,SSW,211,0.0,1.0,80,0.00,,,0.00,weatherlink.com 1.10,2013-06-08 04:52:00,